createdAt,value
2022-12-17T00:00:27.971Z,-3.56
2022-12-17T00:03:16.218Z,-3.52
2022-12-17T00:06:04.533Z,-3.68
2022-12-17T00:08:49.743Z,-3.53
2022-12-17T00:11:37.617Z,-3.45
2022-12-17T00:14:23.557Z,-3.52
2022-12-17T00:17:11.869Z,-3.66
2022-12-17T00:19:59.704Z,-3.70
2022-12-17T00:22:44.969Z,-3.64
2022-12-17T00:25:30.157Z,-3.71
2022-12-17T00:28:16.989Z,-3.43
2022-12-17T00:31:04.590Z,-3.35
2022-12-17T00:33:49.909Z,-4.01
2022-12-17T00:36:35.131Z,-3.82
2022-12-17T00:39:23.066Z,-3.90
2022-12-17T00:42:08.586Z,-4.08
2022-12-17T00:44:56.195Z,-3.80
2022-12-17T00:47:45.433Z,-3.84
2022-12-17T00:50:30.713Z,-3.92
2022-12-17T00:53:15.958Z,-4.15
2022-12-17T00:56:01.266Z,-4.13
2022-12-17T00:58:47.977Z,-4.00
2022-12-17T01:01:34.975Z,-3.95
2022-12-17T01:04:20.273Z,-3.82
2022-12-17T01:07:05.503Z,-3.94
2022-12-17T01:09:50.920Z,-3.91
2022-12-17T01:12:38.840Z,-4.34
2022-12-17T01:15:25.491Z,-4.57
2022-12-17T01:18:12.401Z,-4.60
2022-12-17T01:20:57.495Z,-4.58
2022-12-17T01:23:43.033Z,-4.45
2022-12-17T01:26:28.459Z,-4.52
2022-12-17T01:29:15.763Z,-4.49
2022-12-17T01:32:01.668Z,-4.57
2022-12-17T01:34:48.359Z,-4.47
2022-12-17T01:37:36.040Z,-4.64
2022-12-17T01:40:21.424Z,-4.60
2022-12-17T01:43:07.103Z,-4.61
2022-12-17T01:45:57.591Z,-4.55
2022-12-17T01:48:48.362Z,-4.78
2022-12-17T01:51:37.511Z,-4.72
2022-12-17T01:54:24.019Z,-4.95
2022-12-17T01:57:09.649Z,-4.88
2022-12-17T02:00:01.878Z,-4.73
2022-12-17T02:02:50.594Z,-4.83
2022-12-17T02:05:47.588Z,-4.94
2022-12-17T02:08:43.815Z,-5.07
2022-12-17T02:11:36.240Z,-5.01
2022-12-17T02:14:31.954Z,-4.87
2022-12-17T02:17:23.095Z,-4.82
2022-12-17T02:20:23.124Z,-4.82
2022-12-17T02:23:14.328Z,-5.16
2022-12-17T02:26:10.000Z,-5.70
2022-12-17T02:29:04.758Z,-5.52
2022-12-17T02:31:52.809Z,-5.32
2022-12-17T02:34:42.420Z,-5.46
2022-12-17T02:37:29.001Z,-5.30
2022-12-17T02:40:14.390Z,-5.62
2022-12-17T02:43:01.324Z,-5.51
2022-12-17T02:45:54.807Z,-5.40
2022-12-17T02:48:41.504Z,-5.63
2022-12-17T02:51:28.800Z,-5.50
2022-12-17T02:54:14.135Z,-5.55
2022-12-17T02:56:59.314Z,-5.43
2022-12-17T02:59:44.718Z,-5.45
2022-12-17T03:02:35.623Z,-5.77
2022-12-17T03:05:44.019Z,-5.72
2022-12-17T03:08:27.217Z,-5.63
2022-12-17T03:11:12.509Z,-5.56
2022-12-17T03:13:57.759Z,-5.72
2022-12-17T03:16:43.123Z,-5.60
2022-12-17T03:19:30.349Z,-5.77
2022-12-17T03:22:15.802Z,-5.87
2022-12-17T03:25:01.240Z,-5.79
2022-12-17T03:27:48.998Z,-5.60
2022-12-17T03:30:36.190Z,-5.18
2022-12-17T03:33:22.570Z,-5.61
2022-12-17T03:36:12.914Z,-5.09
2022-12-17T03:38:58.430Z,-5.02
2022-12-17T03:41:44.202Z,-5.02
2022-12-17T03:44:29.444Z,-4.87
2022-12-17T03:47:14.733Z,-4.71
2022-12-17T03:50:02.363Z,-4.76
2022-12-17T03:52:51.399Z,-4.65
2022-12-17T03:55:38.816Z,-4.61
2022-12-17T03:58:24.385Z,-4.48
2022-12-17T04:01:09.533Z,-4.43
2022-12-17T04:03:57.107Z,-4.24
2022-12-17T04:06:42.278Z,-4.16
2022-12-17T04:09:29.145Z,-4.26
2022-12-17T04:12:14.330Z,-4.15
2022-12-17T04:14:59.582Z,-4.30
2022-12-17T04:17:44.765Z,-4.23
2022-12-17T04:20:32.607Z,-4.11
2022-12-17T04:23:17.850Z,-4.42
2022-12-17T04:26:07.080Z,-4.47
2022-12-17T04:28:52.283Z,-4.21
2022-12-17T04:31:37.509Z,-3.98
2022-12-17T04:34:22.798Z,-4.15
2022-12-17T04:37:08.482Z,-4.01
2022-12-17T04:39:53.742Z,-3.98
2022-12-17T04:42:40.582Z,-3.70
2022-12-17T04:45:26.897Z,-3.54
2022-12-17T04:48:19.646Z,-3.65
2022-12-17T04:51:05.235Z,-3.51
2022-12-17T04:53:53.489Z,-3.41
2022-12-17T04:56:40.375Z,-3.45
2022-12-17T04:59:32.767Z,-3.32
2022-12-17T05:02:18.179Z,-3.26
2022-12-17T05:05:03.503Z,-3.44
2022-12-17T05:07:51.345Z,-3.35
2022-12-17T05:10:33.207Z,-3.16
2022-12-17T05:13:19.751Z,-3.21
2022-12-17T05:16:06.251Z,-3.40
2022-12-17T05:18:51.652Z,-3.36
2022-12-17T05:21:37.345Z,-3.26
2022-12-17T05:24:23.144Z,-3.71
2022-12-17T05:27:08.565Z,-3.49
2022-12-17T05:29:53.767Z,-3.41
2022-12-17T05:32:40.314Z,-3.46
2022-12-17T05:35:26.541Z,-4.20
2022-12-17T05:38:12.334Z,-4.01
2022-12-17T05:40:57.914Z,-3.65
2022-12-17T05:43:42.996Z,-3.92
2022-12-17T05:46:28.230Z,-3.74
2022-12-17T05:49:15.262Z,-3.87
2022-12-17T05:52:00.475Z,-3.79
2022-12-17T05:54:45.730Z,-3.73
2022-12-17T05:57:30.867Z,-3.38
2022-12-17T06:00:16.195Z,-3.42
2022-12-17T06:03:01.719Z,-3.25
2022-12-17T06:05:48.345Z,-3.09
2022-12-17T06:08:33.693Z,-3.16
2022-12-17T06:11:19.631Z,-3.19
2022-12-17T06:14:07.694Z,-3.28
2022-12-17T06:16:52.781Z,-3.28
2022-12-17T06:19:40.580Z,-3.13
2022-12-17T06:22:27.319Z,-3.03
2022-12-17T06:25:13.014Z,-3.26
2022-12-17T06:27:58.356Z,-3.83
2022-12-17T06:30:43.778Z,-3.38
2022-12-17T06:33:30.295Z,-3.31
2022-12-17T06:36:22.086Z,-3.04
2022-12-17T06:39:09.373Z,-3.14
2022-12-17T06:42:02.065Z,-3.50
2022-12-17T06:44:49.079Z,-3.67
2022-12-17T06:47:34.658Z,-3.84
2022-12-17T06:50:22.705Z,-3.39
2022-12-17T06:53:29.159Z,-3.39
2022-12-17T06:56:18.451Z,-3.38
2022-12-17T06:59:04.579Z,-3.27
2022-12-17T07:01:49.981Z,-3.15
2022-12-17T07:04:35.318Z,-3.34
2022-12-17T07:07:20.713Z,-3.36
2022-12-17T07:10:13.690Z,-3.26
2022-12-17T07:13:01.357Z,-3.23
2022-12-17T07:15:46.850Z,-3.00
2022-12-17T07:18:43.496Z,-2.99
2022-12-17T07:21:28.781Z,-3.28
2022-12-17T07:24:14.206Z,-3.43
2022-12-17T07:26:59.646Z,-3.88
2022-12-17T07:30:00.788Z,-3.67
2022-12-17T07:32:52.000Z,-3.96
2022-12-17T07:35:37.882Z,-3.49
2022-12-17T07:38:24.251Z,-3.34
2022-12-17T07:41:09.409Z,-3.72
2022-12-17T07:43:54.683Z,-4.10
2022-12-17T07:46:41.318Z,-3.54
2022-12-17T07:49:26.584Z,-3.20
2022-12-17T07:52:12.393Z,-3.03
2022-12-17T07:54:54.366Z,-3.15
2022-12-17T07:57:39.793Z,-2.94
2022-12-17T08:00:26.528Z,-3.19
2022-12-17T08:03:16.438Z,-3.01
2022-12-17T08:06:04.763Z,-3.04
2022-12-17T08:08:49.971Z,-2.80
2022-12-17T08:11:35.192Z,-2.86
2022-12-17T08:14:20.563Z,-3.07
2022-12-17T08:17:05.905Z,-3.11
2022-12-17T08:19:52.524Z,-2.98
2022-12-17T08:22:37.771Z,-3.06
2022-12-17T08:25:24.031Z,-2.78
2022-12-17T08:28:41.232Z,-3.04
2022-12-17T08:31:20.488Z,-3.13
2022-12-17T08:34:08.088Z,-2.99
2022-12-17T08:36:54.970Z,-2.78
2022-12-17T08:39:40.919Z,-2.48
2022-12-17T08:42:26.268Z,-2.38
2022-12-17T08:45:11.433Z,-2.19
2022-12-17T08:48:02.070Z,-2.00
2022-12-17T08:51:04.185Z,-1.99
2022-12-17T08:53:51.113Z,-2.12
2022-12-17T08:56:36.583Z,-2.16
2022-12-17T08:59:22.322Z,-1.98
2022-12-17T09:02:08.334Z,-2.16
2022-12-17T09:04:53.990Z,-2.04
2022-12-17T09:07:39.246Z,-1.86
2022-12-17T09:10:27.028Z,-1.74
2022-12-17T09:13:12.504Z,-2.27
2022-12-17T09:15:58.148Z,-2.16
2022-12-17T09:18:43.398Z,-2.15
2022-12-17T09:21:28.625Z,-2.27
2022-12-17T09:24:15.710Z,-2.49
2022-12-17T09:27:08.945Z,-2.36
2022-12-17T09:30:07.042Z,-2.51
2022-12-17T09:32:55.090Z,-2.49
2022-12-17T09:35:41.107Z,-2.19
2022-12-17T09:38:30.212Z,-2.57
2022-12-17T09:41:24.022Z,-2.13
2022-12-17T09:44:19.994Z,-2.19
2022-12-17T09:47:12.025Z,-1.82
2022-12-17T09:49:57.979Z,-1.66
2022-12-17T09:52:50.116Z,-1.87
2022-12-17T09:55:39.449Z,-1.94
2022-12-17T09:58:29.830Z,-1.49
2022-12-17T10:01:17.425Z,-1.55
2022-12-17T10:04:05.774Z,-1.54
2022-12-17T10:06:52.151Z,-2.40
2022-12-17T10:09:38.377Z,-1.95
2022-12-17T10:12:33.121Z,-2.22
2022-12-17T10:15:18.387Z,-1.79
2022-12-17T10:18:08.208Z,-1.95
2022-12-17T10:20:59.785Z,-1.55
2022-12-17T10:23:49.324Z,-1.42
2022-12-17T10:26:36.881Z,-1.47
2022-12-17T10:29:29.881Z,-1.45
2022-12-17T10:32:17.785Z,-1.47
2022-12-17T10:35:05.802Z,-1.52
2022-12-17T10:37:53.912Z,-1.34
2022-12-17T10:40:44.356Z,-1.51
2022-12-17T10:43:47.252Z,-1.00
2022-12-17T10:46:41.515Z,-0.95
2022-12-17T10:49:32.809Z,-1.04
2022-12-17T10:52:22.075Z,-1.06
2022-12-17T10:55:17.233Z,-1.30
2022-12-17T10:58:02.795Z,-1.31
2022-12-17T11:00:50.902Z,-1.15
2022-12-17T11:03:57.772Z,-0.88
2022-12-17T11:06:48.185Z,-1.46
2022-12-17T11:09:46.261Z,-0.84
2022-12-17T11:12:34.752Z,-0.40
2022-12-17T11:15:30.985Z,-1.68
2022-12-17T11:18:16.998Z,-1.92
2022-12-17T11:21:09.022Z,-0.92
2022-12-17T11:24:00.477Z,-0.31
2022-12-17T11:26:51.090Z,-0.30
2022-12-17T11:29:36.432Z,-0.84
2022-12-17T11:32:51.957Z,-0.45
2022-12-17T11:35:42.061Z,-0.38
2022-12-17T11:38:40.342Z,-0.14
2022-12-17T11:41:37.265Z,-0.43
2022-12-17T11:44:33.613Z,-0.59
2022-12-17T11:47:34.790Z,-1.15
2022-12-17T11:50:31.170Z,-0.89
2022-12-17T11:53:27.884Z,-0.60
2022-12-17T11:56:24.351Z,-0.98
2022-12-17T11:59:11.801Z,-0.61
2022-12-17T12:02:04.540Z,-0.71
2022-12-17T12:05:05.170Z,-1.39
2022-12-17T12:07:59.029Z,-1.08
2022-12-17T12:10:54.603Z,-1.27
2022-12-17T12:13:47.911Z,-1.29
2022-12-17T12:16:43.880Z,-0.91
2022-12-17T12:19:39.642Z,-1.49
2022-12-17T12:22:33.994Z,-0.80
2022-12-17T12:25:37.088Z,-0.84
2022-12-17T12:28:29.095Z,-1.36
2022-12-17T12:31:27.989Z,-1.64
2022-12-17T12:34:18.959Z,-0.96
2022-12-17T12:37:08.268Z,-0.97
2022-12-17T12:39:59.227Z,-1.00
2022-12-17T12:42:52.162Z,-1.04
2022-12-17T12:45:49.694Z,-1.15
2022-12-17T12:48:47.270Z,-1.00
2022-12-17T12:51:38.220Z,-0.84
2022-12-17T12:57:17.811Z,-1.18
2022-12-17T13:00:08.168Z,-1.12
2022-12-17T13:02:54.052Z,-1.10
2022-12-17T13:05:40.444Z,-0.68
2022-12-17T13:09:53.996Z,0.15
2022-12-17T13:12:34.109Z,-0.09
2022-12-17T13:15:19.128Z,0.06
2022-12-17T13:17:57.114Z,-0.47
2022-12-17T13:20:30.964Z,-0.48
2022-12-17T13:23:27.787Z,-0.48
2022-12-17T13:26:20.967Z,-0.91
2022-12-17T13:29:04.089Z,-0.94
2022-12-17T13:31:42.258Z,-0.44
2022-12-17T13:34:18.145Z,-0.80
2022-12-17T13:36:54.658Z,-0.85
2022-12-17T13:39:35.231Z,-0.10
2022-12-17T13:42:04.263Z,-0.37
2022-12-17T13:44:40.075Z,-0.24
2022-12-17T13:47:22.207Z,-0.25
2022-12-17T13:50:31.552Z,-0.37
2022-12-17T13:52:41.871Z,-0.35
2022-12-17T13:55:11.790Z,-0.70
2022-12-17T13:57:39.783Z,-0.64
2022-12-17T14:00:21.046Z,-0.84
2022-12-17T14:02:49.182Z,-0.56
2022-12-17T14:05:26.847Z,-0.60
2022-12-17T14:07:55.474Z,-0.28
2022-12-17T14:10:23.435Z,-0.45
2022-12-17T14:12:51.198Z,-0.77
2022-12-17T14:15:25.621Z,-1.03
2022-12-17T14:17:55.254Z,-0.98
2022-12-17T14:20:26.138Z,-0.86
2022-12-17T14:22:56.806Z,-1.11
2022-12-17T14:25:27.250Z,-1.01
2022-12-17T14:27:57.386Z,-0.81
2022-12-17T14:30:40.300Z,-0.64
2022-12-17T14:33:28.032Z,-0.94
2022-12-17T14:36:01.648Z,-0.96
2022-12-17T14:38:38.774Z,-0.94
2022-12-17T14:41:34.514Z,-1.12
2022-12-17T14:44:03.792Z,-1.10
2022-12-17T14:46:34.861Z,-1.01
2022-12-17T14:49:05.878Z,-1.13
2022-12-17T14:51:36.481Z,-1.21
2022-12-17T14:54:25.732Z,-1.18
2022-12-17T14:56:57.744Z,-1.11
2022-12-17T14:59:33.595Z,-1.14
2022-12-17T15:02:06.222Z,-1.23
2022-12-17T15:04:34.888Z,-1.29
2022-12-17T15:07:03.029Z,-1.48
2022-12-17T15:09:31.245Z,-1.64
2022-12-17T15:11:59.180Z,-1.59
2022-12-17T15:14:27.052Z,-1.80
2022-12-17T15:16:55.887Z,-1.89
2022-12-17T15:19:25.232Z,-2.11
2022-12-17T15:21:53.213Z,-2.37
2022-12-17T15:24:22.150Z,-2.20
2022-12-17T15:26:50.603Z,-2.28
2022-12-17T15:29:18.361Z,-2.13
2022-12-17T15:31:46.286Z,-2.06
2022-12-17T15:34:14.137Z,-2.33
2022-12-17T15:36:43.430Z,-2.32
2022-12-17T15:39:12.339Z,-2.34
2022-12-17T15:41:54.057Z,-2.27
2022-12-17T15:44:24.006Z,-2.74
2022-12-17T15:46:51.832Z,-2.62
2022-12-17T15:49:22.768Z,-2.68
2022-12-17T15:51:51.967Z,-2.72
2022-12-17T15:54:19.839Z,-2.84
2022-12-17T15:56:53.662Z,-2.81
2022-12-17T15:59:21.705Z,-2.81
2022-12-17T16:01:49.934Z,-2.91
2022-12-17T16:04:24.472Z,-2.95
2022-12-17T16:06:54.833Z,-3.03
2022-12-17T16:09:24.456Z,-3.05
2022-12-17T16:11:54.423Z,-3.49
2022-12-17T16:14:22.585Z,-3.93
2022-12-17T16:16:52.972Z,-3.97
2022-12-17T16:19:24.641Z,-4.18
2022-12-17T16:21:56.429Z,-4.00
2022-12-17T16:24:24.645Z,-4.05
2022-12-17T16:26:52.564Z,-3.88
2022-12-17T16:29:20.529Z,-3.77
2022-12-17T16:31:49.819Z,-3.64
2022-12-17T16:34:17.934Z,-3.58
2022-12-17T16:36:45.857Z,-3.36
2022-12-17T16:39:19.068Z,-3.41
2022-12-17T16:41:47.350Z,-3.47
2022-12-17T16:44:15.214Z,-3.55
2022-12-17T16:46:46.413Z,-3.66
2022-12-17T16:49:16.809Z,-4.40
2022-12-17T16:51:45.637Z,-4.33
2022-12-17T16:54:15.843Z,-4.14
2022-12-17T16:56:46.769Z,-4.30
2022-12-17T16:59:16.494Z,-4.28
2022-12-17T17:01:46.190Z,-4.47
2022-12-17T17:04:16.382Z,-4.54
2022-12-17T17:06:46.104Z,-4.43
2022-12-17T17:09:15.009Z,-4.73
2022-12-17T17:11:46.989Z,-4.58
2022-12-17T17:14:22.626Z,-4.59
2022-12-17T17:16:50.713Z,-4.56
2022-12-17T17:19:19.654Z,-4.40
2022-12-17T17:21:51.759Z,-4.31
2022-12-17T17:24:23.000Z,-4.40
2022-12-17T17:26:52.388Z,-4.47
2022-12-17T17:29:22.375Z,-4.85
2022-12-17T17:32:09.815Z,-4.69
2022-12-17T17:34:38.360Z,-4.83
2022-12-17T17:37:06.567Z,-4.69
2022-12-17T17:39:34.766Z,-4.58
2022-12-17T17:42:03.131Z,-4.52
2022-12-17T17:44:32.548Z,-4.72
2022-12-17T17:47:00.625Z,-4.74
2022-12-17T17:49:28.898Z,-4.54
2022-12-17T17:52:12.569Z,-5.02
2022-12-17T17:54:40.779Z,-5.12
2022-12-17T17:57:09.508Z,-4.99
2022-12-17T17:59:41.292Z,-4.84
2022-12-17T18:02:11.812Z,-4.61
2022-12-17T18:04:39.942Z,-4.68
2022-12-17T18:09:56.915Z,-4.95
2022-12-17T18:12:57.164Z,-5.04
2022-12-17T18:15:26.497Z,-5.01
2022-12-17T18:17:54.381Z,-4.72
2022-12-17T18:20:22.233Z,-4.53
2022-12-17T18:22:50.562Z,-4.90
2022-12-17T18:25:18.831Z,-4.93
2022-12-17T18:27:46.787Z,-5.02
2022-12-17T18:30:16.423Z,-4.93
2022-12-17T18:32:45.996Z,-5.14
2022-12-17T18:35:14.104Z,-5.27
2022-12-17T18:37:42.674Z,-5.52
2022-12-17T18:40:11.610Z,-5.22
2022-12-17T18:42:56.784Z,-5.47
2022-12-17T18:45:25.014Z,-5.32
2022-12-17T18:47:54.645Z,-5.26
2022-12-17T18:50:25.717Z,-5.07
2022-12-17T18:52:53.661Z,-4.87
2022-12-17T18:55:21.560Z,-5.08
2022-12-17T18:57:49.415Z,-5.39
2022-12-17T19:00:17.582Z,-5.30
2022-12-17T19:02:45.585Z,-5.10
2022-12-17T19:05:15.033Z,-5.01
2022-12-17T19:07:45.271Z,-4.85
2022-12-17T19:10:13.271Z,-4.86
2022-12-17T19:12:44.232Z,-4.85
2022-12-17T19:15:12.193Z,-5.43
2022-12-17T19:17:40.148Z,-5.76
2022-12-17T19:20:11.482Z,-5.77
2022-12-17T19:22:40.792Z,-5.92
2022-12-17T19:25:09.408Z,-5.64
2022-12-17T19:27:37.280Z,-5.48
2022-12-17T19:30:06.171Z,-5.34
2022-12-17T19:32:33.933Z,-5.19
2022-12-17T19:35:01.995Z,-5.18
2022-12-17T19:37:32.116Z,-5.10
2022-12-17T19:40:01.373Z,-5.07
2022-12-17T19:42:37.302Z,-4.94
2022-12-17T19:45:09.433Z,-4.85
2022-12-17T19:47:37.254Z,-5.18
2022-12-17T19:50:06.106Z,-5.33
2022-12-17T19:52:34.125Z,-5.18
2022-12-17T19:55:03.397Z,-5.20
2022-12-17T19:57:35.526Z,-5.20
2022-12-17T20:00:03.483Z,-5.20
2022-12-17T20:02:40.712Z,-5.39
2022-12-17T20:05:09.598Z,-5.48
2022-12-17T20:07:38.340Z,-5.35
2022-12-17T20:10:08.363Z,-5.31
2022-12-17T20:12:36.179Z,-5.33
2022-12-17T20:15:04.920Z,-5.30
2022-12-17T20:17:32.799Z,-5.73
2022-12-17T20:20:00.647Z,-5.89
2022-12-17T20:22:28.545Z,-5.67
2022-12-17T20:24:56.558Z,-5.98
2022-12-17T20:27:25.918Z,-6.17
2022-12-17T20:29:54.306Z,-6.11
2022-12-17T20:32:24.701Z,-6.01
2022-12-17T20:34:53.072Z,-5.88
2022-12-17T20:37:21.096Z,-5.77
2022-12-17T20:39:49.825Z,-5.77
2022-12-17T20:42:19.014Z,-5.87
2022-12-17T20:44:53.245Z,-5.78
2022-12-17T20:47:21.843Z,-5.66
2022-12-17T20:49:49.773Z,-5.88
2022-12-17T20:52:17.673Z,-5.83
2022-12-17T20:54:45.564Z,-6.33
2022-12-17T20:57:13.687Z,-6.42
2022-12-17T20:59:41.777Z,-6.17
2022-12-17T21:02:14.259Z,-5.94
2022-12-17T21:04:42.161Z,-5.73
2022-12-17T21:07:09.985Z,-6.01
2022-12-17T21:09:37.877Z,-6.31
2022-12-17T21:12:05.999Z,-6.44
2022-12-17T21:14:35.866Z,-6.45
2022-12-17T21:17:05.081Z,-6.30
2022-12-17T21:19:36.879Z,-6.08
2022-12-17T21:22:08.345Z,-6.08
2022-12-17T21:24:37.171Z,-5.80
2022-12-17T21:27:09.586Z,-5.82
2022-12-17T21:29:40.942Z,-5.94
2022-12-17T21:32:09.426Z,-6.15
2022-12-17T21:34:38.839Z,-5.97
2022-12-17T21:37:07.085Z,-5.84
2022-12-17T21:39:37.654Z,-5.87
2022-12-17T21:42:23.344Z,-5.77
2022-12-17T21:44:51.320Z,-5.74
2022-12-17T21:47:19.460Z,-5.84
2022-12-17T21:49:51.342Z,-5.71
2022-12-17T21:52:19.175Z,-6.06
2022-12-17T21:54:47.602Z,-5.99
2022-12-17T21:57:15.501Z,-5.95
2022-12-17T21:59:44.133Z,-5.84
2022-12-17T22:02:12.340Z,-5.81
2022-12-17T22:04:40.645Z,-5.73
2022-12-17T22:07:11.580Z,-5.66
2022-12-17T22:09:59.148Z,-6.18
2022-12-17T22:12:55.144Z,-6.85
2022-12-17T22:15:23.141Z,-6.60
2022-12-17T22:17:59.423Z,-6.29
2022-12-17T22:20:27.932Z,-6.04
2022-12-17T22:22:57.127Z,-6.02
2022-12-17T22:25:27.301Z,-5.96
2022-12-17T22:27:55.227Z,-5.97
2022-12-17T22:30:40.483Z,-6.15
2022-12-17T22:33:33.267Z,-6.25
2022-12-17T22:37:41.554Z,-6.55
2022-12-17T22:42:55.351Z,-6.55
2022-12-17T22:44:35.211Z,-6.51
2022-12-17T22:44:54.124Z,-6.26
2022-12-17T22:47:23.762Z,-6.05
2022-12-17T22:49:51.698Z,-6.23
2022-12-17T22:52:20.368Z,-6.71
2022-12-17T22:54:50.085Z,-6.49
2022-12-17T22:57:35.942Z,-6.49
2022-12-17T23:00:11.822Z,-6.62
2022-12-17T23:02:39.980Z,-6.66
2022-12-17T23:05:08.506Z,-6.47
2022-12-17T23:07:36.845Z,-6.30
2022-12-17T23:10:07.277Z,-6.43
2022-12-17T23:12:54.193Z,-6.36
2022-12-17T23:15:26.880Z,-6.19
2022-12-17T23:17:57.038Z,-6.39
2022-12-17T23:20:25.971Z,-6.15
2022-12-17T23:22:57.829Z,-5.99
2022-12-17T23:25:29.158Z,-6.17
2022-12-17T23:27:57.187Z,-6.20
2022-12-17T23:30:25.355Z,-6.35
2022-12-17T23:32:53.468Z,-6.55
2022-12-17T23:35:21.497Z,-6.88
2022-12-17T23:37:50.272Z,-6.89
2022-12-17T23:40:18.285Z,-6.76
2022-12-17T23:42:47.604Z,-6.97
2022-12-17T23:45:18.147Z,-7.18
2022-12-17T23:47:46.198Z,-7.17
2022-12-17T23:50:14.289Z,-6.86
2022-12-17T23:52:42.128Z,-6.94
2022-12-17T23:55:11.735Z,-7.15
2022-12-17T23:57:40.497Z,-7.12
